createdAt,value
2023-04-11T00:01:23.715Z,76.21
2023-04-11T00:03:50.933Z,76.64
2023-04-11T00:06:17.879Z,76.11
2023-04-11T00:08:44.697Z,75.58
2023-04-11T00:11:11.450Z,75.78
2023-04-11T00:13:38.434Z,76.70
2023-04-11T00:16:08.804Z,76.30
2023-04-11T00:18:37.183Z,76.42
2023-04-11T00:21:04.252Z,76.45
2023-04-11T00:23:30.995Z,76.65
2023-04-11T00:25:58.787Z,75.66
2023-04-11T00:28:25.516Z,74.64
2023-04-11T00:30:52.220Z,74.92
2023-04-11T00:33:18.988Z,75.62
2023-04-11T00:35:45.992Z,77.20
2023-04-11T00:38:12.789Z,78.34
2023-04-11T00:40:40.197Z,78.02
2023-04-11T00:43:06.887Z,78.78
2023-04-11T00:45:33.792Z,79.99
2023-04-11T00:48:01.153Z,79.33
2023-04-11T00:50:28.555Z,78.83
2023-04-11T00:52:56.800Z,78.68
2023-04-11T00:55:24.103Z,80.59
2023-04-11T00:57:54.213Z,79.98
2023-04-11T01:00:21.080Z,80.06
2023-04-11T01:02:47.899Z,81.14
2023-04-11T01:05:15.428Z,80.06
2023-04-11T01:07:45.691Z,81.71
2023-04-11T01:10:12.884Z,81.93
2023-04-11T01:12:40.490Z,81.15
2023-04-11T01:15:07.540Z,79.39
2023-04-11T01:17:34.380Z,79.15
2023-04-11T01:20:01.347Z,79.16
2023-04-11T01:22:29.185Z,78.93
2023-04-11T01:24:56.390Z,79.47
2023-04-11T01:27:23.364Z,79.92
2023-04-11T01:29:51.056Z,80.87
2023-04-11T01:32:17.947Z,80.49
2023-04-11T01:34:46.950Z,79.58
2023-04-11T01:37:13.863Z,80.95
2023-04-11T01:39:40.962Z,80.61
2023-04-11T01:42:08.956Z,81.17
2023-04-11T01:44:36.844Z,80.86
2023-04-11T01:47:04.037Z,80.74
2023-04-11T01:49:30.881Z,80.30
2023-04-11T01:51:57.751Z,80.38
2023-04-11T01:54:24.626Z,81.81
2023-04-11T01:56:54.929Z,80.53
2023-04-11T01:59:21.762Z,80.50
2023-04-11T02:01:48.604Z,80.58
2023-04-11T02:04:15.548Z,79.40
2023-04-11T02:06:42.416Z,78.47
2023-04-11T02:09:09.280Z,77.26
2023-04-11T02:11:36.230Z,77.11
2023-04-11T02:14:03.901Z,76.04
2023-04-11T02:16:33.628Z,76.44
2023-04-11T02:19:00.422Z,75.53
2023-04-11T02:21:28.204Z,74.44
2023-04-11T02:23:57.857Z,74.69
2023-04-11T02:26:26.805Z,75.24
2023-04-11T02:28:55.898Z,75.29
2023-04-11T02:31:22.887Z,74.60
2023-04-11T02:33:49.621Z,73.46
2023-04-11T02:36:18.677Z,73.07
2023-04-11T02:38:45.380Z,72.27
2023-04-11T02:41:12.015Z,72.38
2023-04-11T02:43:38.719Z,71.74
2023-04-11T02:46:12.786Z,71.52
2023-04-11T02:48:42.063Z,71.32
2023-04-11T02:51:09.671Z,70.69
2023-04-11T02:53:36.488Z,70.00
2023-04-11T02:56:03.229Z,70.31
2023-04-11T02:58:30.209Z,70.52
2023-04-11T03:01:03.270Z,70.96
2023-04-11T03:03:30.069Z,71.29
2023-04-11T03:05:57.046Z,70.03
2023-04-11T03:08:26.168Z,70.48
2023-04-11T03:10:53.866Z,70.98
2023-04-11T03:13:22.785Z,71.00
2023-04-11T03:15:49.571Z,71.87
2023-04-11T03:18:16.832Z,71.20
2023-04-11T03:20:46.861Z,71.31
2023-04-11T03:23:15.551Z,72.37
2023-04-11T03:25:44.632Z,72.11
2023-04-11T03:28:12.695Z,72.53
2023-04-11T03:30:42.540Z,71.95
2023-04-11T03:33:12.139Z,72.46
2023-04-11T03:35:39.605Z,72.36
2023-04-11T03:38:06.358Z,72.96
2023-04-11T03:40:33.201Z,73.79
2023-04-11T03:43:10.594Z,73.76
2023-04-11T03:45:37.402Z,73.73
2023-04-11T03:48:09.126Z,73.72
2023-04-11T03:50:49.519Z,74.94
2023-04-11T03:53:20.514Z,74.75
2023-04-11T03:55:49.357Z,74.15
2023-04-11T03:58:18.196Z,73.58
2023-04-11T04:00:44.959Z,73.95
2023-04-11T04:03:13.762Z,74.70
2023-04-11T04:05:41.790Z,74.38
2023-04-11T04:08:11.188Z,74.33
2023-04-11T04:10:42.349Z,73.73
2023-04-11T04:13:10.633Z,74.44
2023-04-11T04:15:45.649Z,74.35
2023-04-11T04:18:14.031Z,73.93
2023-04-11T04:20:43.972Z,74.58
2023-04-11T04:23:13.991Z,74.89
2023-04-11T04:26:13.115Z,73.87
2023-04-11T04:28:46.231Z,73.74
2023-04-11T04:31:22.318Z,73.94
2023-04-11T04:33:50.559Z,73.81
2023-04-11T04:36:24.925Z,73.68
2023-04-11T04:38:52.084Z,73.81
2023-04-11T04:41:22.863Z,73.75
2023-04-11T04:43:58.233Z,73.93
2023-04-11T04:46:43.631Z,74.14
2023-04-11T04:49:10.906Z,74.51
2023-04-11T04:51:38.600Z,74.18
2023-04-11T04:54:05.956Z,74.45
2023-04-11T04:56:33.053Z,73.86
2023-04-11T04:58:59.851Z,73.94
2023-04-11T05:01:28.414Z,74.17
2023-04-11T05:03:59.598Z,74.16
2023-04-11T05:06:44.088Z,74.09
2023-04-11T05:09:11.271Z,73.37
2023-04-11T05:11:38.612Z,73.35
2023-04-11T05:14:08.452Z,72.82
2023-04-11T05:16:35.491Z,72.59
2023-04-11T05:19:02.348Z,71.90
2023-04-11T05:21:31.408Z,72.46
2023-04-11T05:23:58.314Z,71.99
2023-04-11T05:26:25.499Z,72.17
2023-04-11T05:28:52.256Z,71.69
2023-04-11T05:31:21.897Z,71.86
2023-04-11T05:33:49.141Z,72.21
2023-04-11T05:36:16.162Z,71.59
2023-04-11T05:38:44.220Z,71.73
2023-04-11T05:41:11.780Z,71.21
2023-04-11T05:43:38.871Z,70.87
2023-04-11T05:46:07.805Z,70.67
2023-04-11T05:48:34.695Z,69.74
2023-04-11T05:51:01.768Z,69.14
2023-04-11T05:53:29.100Z,69.48
2023-04-11T05:55:56.138Z,68.53
2023-04-11T05:58:23.542Z,68.21
2023-04-11T06:00:50.816Z,67.62
2023-04-11T06:03:17.684Z,66.56
2023-04-11T06:05:44.527Z,64.27
2023-04-11T06:08:11.996Z,64.70
2023-04-11T06:10:38.710Z,63.57
2023-04-11T06:13:05.402Z,62.80
2023-04-11T06:15:32.284Z,64.04
2023-04-11T06:17:58.988Z,64.08
2023-04-11T06:20:25.778Z,64.32
2023-04-11T06:22:52.819Z,64.90
2023-04-11T06:25:20.644Z,65.15
2023-04-11T06:27:48.032Z,64.53
2023-04-11T06:30:15.262Z,62.79
2023-04-11T06:32:42.297Z,60.55
2023-04-11T06:35:09.552Z,58.41
2023-04-11T06:37:36.283Z,56.60
2023-04-11T06:40:05.368Z,57.89
2023-04-11T06:42:32.401Z,56.34
2023-04-11T06:44:59.055Z,54.64
2023-04-11T06:47:25.903Z,51.70
2023-04-11T06:49:52.713Z,48.56
2023-04-11T06:52:19.419Z,47.57
2023-04-11T06:54:48.087Z,46.54
2023-04-11T06:57:14.908Z,47.33
2023-04-11T06:59:41.599Z,49.47
2023-04-11T07:02:08.355Z,49.18
2023-04-11T07:04:35.261Z,49.26
2023-04-11T07:07:02.146Z,54.25
2023-04-11T07:09:28.968Z,54.79
2023-04-11T07:11:56.212Z,56.40
2023-04-11T07:14:25.049Z,57.51
2023-04-11T07:16:51.814Z,57.76
2023-04-11T07:19:18.581Z,59.15
2023-04-11T07:21:48.832Z,59.37
2023-04-11T07:24:18.757Z,61.40
2023-04-11T07:26:46.411Z,64.26
2023-04-11T07:29:14.960Z,65.16
2023-04-11T07:31:42.010Z,63.21
2023-04-11T07:34:08.747Z,62.71
2023-04-11T07:36:35.950Z,61.95
2023-04-11T07:39:04.336Z,62.15
2023-04-11T07:41:31.179Z,63.32
2023-04-11T07:43:58.180Z,62.54
2023-04-11T07:46:25.045Z,61.80
2023-04-11T07:48:51.978Z,61.74
2023-04-11T07:51:18.866Z,61.72
2023-04-11T07:53:45.646Z,61.79
2023-04-11T07:56:12.396Z,61.19
2023-04-11T07:58:39.076Z,60.77
2023-04-11T08:01:09.062Z,60.36
2023-04-11T08:03:36.273Z,61.67
2023-04-11T08:06:03.158Z,60.45
2023-04-11T08:08:29.896Z,57.37
2023-04-11T08:10:56.577Z,55.54
2023-04-11T08:13:23.257Z,56.12
2023-04-11T08:15:50.037Z,57.46
2023-04-11T08:18:21.340Z,57.55
2023-04-11T08:20:48.786Z,58.46
2023-04-11T08:23:15.690Z,59.37
2023-04-11T08:25:42.506Z,59.29
2023-04-11T08:28:10.622Z,58.10
2023-04-11T08:30:37.406Z,58.44
2023-04-11T08:33:04.323Z,57.55
2023-04-11T08:35:31.122Z,54.00
2023-04-11T08:37:57.997Z,52.25
2023-04-11T08:40:26.896Z,52.10
2023-04-11T08:43:09.924Z,52.97
2023-04-11T08:45:36.670Z,56.39
2023-04-11T08:48:03.566Z,59.46
2023-04-11T08:50:30.590Z,57.86
2023-04-11T08:53:02.298Z,59.39
2023-04-11T08:55:30.022Z,59.36
2023-04-11T08:57:59.301Z,57.67
2023-04-11T09:00:28.763Z,57.01
2023-04-11T09:03:06.544Z,57.50
2023-04-11T09:05:38.614Z,59.74
2023-04-11T09:08:10.907Z,59.55
2023-04-11T09:10:39.196Z,60.20
2023-04-11T09:13:26.720Z,59.38
2023-04-11T09:16:05.868Z,58.07
2023-04-11T09:18:39.905Z,55.79
2023-04-11T09:21:08.829Z,51.33
2023-04-11T09:23:36.377Z,47.45
2023-04-11T09:26:06.076Z,45.20
2023-04-11T09:28:44.514Z,42.23
2023-04-11T09:31:14.394Z,39.09
2023-04-11T09:33:52.353Z,41.55
2023-04-11T09:36:21.504Z,45.44
2023-04-11T09:38:48.422Z,47.94
2023-04-11T09:41:15.590Z,47.61
2023-04-11T09:43:53.219Z,44.58
2023-04-11T09:46:21.257Z,45.31
2023-04-11T09:48:53.047Z,47.38
2023-04-11T09:51:34.944Z,48.26
2023-04-11T09:54:08.552Z,46.55
2023-04-11T09:56:36.930Z,46.73
2023-04-11T09:59:05.268Z,47.04
2023-04-11T10:01:32.414Z,46.06
2023-04-11T10:04:00.915Z,44.25
2023-04-11T10:06:38.555Z,43.10
2023-04-11T10:09:08.339Z,42.47
2023-04-11T10:11:35.909Z,44.49
2023-04-11T10:14:02.903Z,46.20
2023-04-11T10:16:32.476Z,47.61
2023-04-11T10:19:00.454Z,45.93
2023-04-11T10:21:30.246Z,42.50
2023-04-11T10:24:18.040Z,38.49
2023-04-11T10:26:55.048Z,36.01
2023-04-11T10:29:28.004Z,34.59
2023-04-11T10:32:19.266Z,31.17
2023-04-11T10:34:55.594Z,33.47
2023-04-11T10:37:35.234Z,35.04
2023-04-11T10:40:01.886Z,38.82
2023-04-11T10:42:30.408Z,40.80
2023-04-11T10:45:22.111Z,43.58
2023-04-11T10:47:51.720Z,45.93
2023-04-11T10:50:30.208Z,44.90
2023-04-11T10:53:00.838Z,42.97
2023-04-11T10:55:29.084Z,39.59
2023-04-11T10:58:22.573Z,38.67
2023-04-11T11:00:52.823Z,36.01
2023-04-11T11:03:31.438Z,32.97
2023-04-11T11:05:59.471Z,32.15
2023-04-11T11:08:38.089Z,30.59
2023-04-11T11:11:06.816Z,30.09
2023-04-11T11:13:40.806Z,30.21
2023-04-11T11:16:09.636Z,29.92
2023-04-11T11:18:37.276Z,29.85
2023-04-11T11:21:05.804Z,29.63
2023-04-11T11:23:36.102Z,29.96
2023-04-11T11:26:03.455Z,31.72
2023-04-11T11:28:30.118Z,32.69
2023-04-11T11:30:57.525Z,32.97
2023-04-11T11:33:28.662Z,33.56
2023-04-11T11:35:57.696Z,34.30
2023-04-11T11:38:29.284Z,37.62
2023-04-11T11:40:57.306Z,38.04
2023-04-11T11:43:27.331Z,39.85
2023-04-11T11:46:10.986Z,39.81
2023-04-11T11:48:37.955Z,39.50
2023-04-11T11:51:05.045Z,38.99
2023-04-11T11:53:32.244Z,39.05
2023-04-11T11:55:59.452Z,39.71
2023-04-11T11:58:27.228Z,38.25
2023-04-11T12:00:54.233Z,38.72
2023-04-11T12:03:24.238Z,38.28
2023-04-11T12:05:55.162Z,37.25
2023-04-11T12:08:22.267Z,37.87
2023-04-11T12:10:50.526Z,39.25
2023-04-11T12:13:26.586Z,39.26
2023-04-11T12:15:56.881Z,40.45
2023-04-11T12:18:25.090Z,39.27
2023-04-11T12:20:52.553Z,38.69
2023-04-11T12:23:19.720Z,37.04
2023-04-11T12:25:46.953Z,36.31
2023-04-11T12:28:14.235Z,36.47
2023-04-11T12:30:41.042Z,36.19
2023-04-11T12:33:07.824Z,36.89
2023-04-11T12:35:34.863Z,37.01
2023-04-11T12:38:01.792Z,37.07
2023-04-11T12:40:29.744Z,38.06
2023-04-11T12:42:57.635Z,37.55
2023-04-11T12:45:25.681Z,36.05
2023-04-11T12:47:53.757Z,36.34
2023-04-11T12:50:23.297Z,34.22
2023-04-11T12:52:50.287Z,34.80
2023-04-11T12:55:17.072Z,33.22
2023-04-11T12:57:43.954Z,33.26
2023-04-11T13:00:12.770Z,33.45
2023-04-11T13:02:44.074Z,33.95
2023-04-11T13:05:14.240Z,34.95
2023-04-11T13:07:42.225Z,34.65
2023-04-11T13:10:09.504Z,35.36
2023-04-11T13:12:41.863Z,35.34
2023-04-11T13:15:11.921Z,35.66
2023-04-11T13:17:39.204Z,35.71
2023-04-11T13:20:07.826Z,36.85
2023-04-11T13:22:34.565Z,36.51
2023-04-11T13:25:01.403Z,36.35
2023-04-11T13:27:28.215Z,36.76
2023-04-11T13:29:54.984Z,36.13
2023-04-11T13:32:21.757Z,35.90
2023-04-11T13:34:48.555Z,34.76
2023-04-11T13:37:15.297Z,34.66
2023-04-11T13:39:42.690Z,34.88
2023-04-11T13:42:10.155Z,34.46
2023-04-11T13:44:36.957Z,33.81
2023-04-11T13:47:03.722Z,33.00
2023-04-11T13:49:30.604Z,33.09
2023-04-11T13:51:57.411Z,33.92
2023-04-11T13:54:24.352Z,34.06
2023-04-11T13:56:51.051Z,32.94
2023-04-11T13:59:17.912Z,33.27
2023-04-11T14:01:44.718Z,33.39
2023-04-11T14:04:11.977Z,33.82
2023-04-11T14:06:39.637Z,33.43
2023-04-11T14:09:06.399Z,33.33
2023-04-11T14:11:33.492Z,33.45
2023-04-11T14:14:00.194Z,32.73
2023-04-11T14:16:26.928Z,32.68
2023-04-11T14:18:53.628Z,33.18
2023-04-11T14:21:21.084Z,33.95
2023-04-11T14:23:48.625Z,34.81
2023-04-11T14:26:15.440Z,34.80
2023-04-11T14:28:42.148Z,34.96
2023-04-11T14:31:09.648Z,35.40
2023-04-11T14:33:36.696Z,35.05
2023-04-11T14:36:03.547Z,35.00
2023-04-11T14:38:30.731Z,35.15
2023-04-11T14:40:57.563Z,35.66
2023-04-11T14:43:24.271Z,36.01
2023-04-11T14:45:55.564Z,36.46
2023-04-11T14:48:22.315Z,36.45
2023-04-11T14:50:49.015Z,35.95
2023-04-11T14:53:16.646Z,35.46
2023-04-11T14:55:44.650Z,34.42
2023-04-11T14:58:11.516Z,34.97
2023-04-11T15:00:38.221Z,34.63
2023-04-11T15:03:05.081Z,34.11
2023-04-11T15:05:31.995Z,34.84
2023-04-11T15:07:58.763Z,35.57
2023-04-11T15:10:26.065Z,35.10
2023-04-11T15:12:53.274Z,35.77
2023-04-11T15:15:20.034Z,35.43
2023-04-11T15:17:49.286Z,35.42
2023-04-11T15:20:16.850Z,35.76
2023-04-11T15:22:45.626Z,35.50
2023-04-11T15:25:14.861Z,36.00
2023-04-11T15:27:42.582Z,36.04
2023-04-11T15:30:10.425Z,37.11
2023-04-11T15:32:43.296Z,36.66
2023-04-11T15:35:10.637Z,36.71
2023-04-11T15:37:37.376Z,36.04
2023-04-11T15:40:07.794Z,36.24
2023-04-11T15:42:35.544Z,36.01
2023-04-11T15:45:02.807Z,37.05
2023-04-11T15:47:30.238Z,37.31
2023-04-11T15:49:58.964Z,37.30
2023-04-11T15:52:26.330Z,37.97
2023-04-11T15:54:53.318Z,37.62
2023-04-11T15:57:20.079Z,37.73
2023-04-11T15:59:47.228Z,37.83
2023-04-11T16:02:15.189Z,38.14
2023-04-11T16:04:46.212Z,37.91
2023-04-11T16:07:18.184Z,38.01
2023-04-11T16:09:45.168Z,37.80
2023-04-11T16:12:11.906Z,37.70
2023-04-11T16:14:38.698Z,38.23
2023-04-11T16:17:05.449Z,38.42
2023-04-11T16:19:32.271Z,38.85
2023-04-11T16:21:58.953Z,39.25
2023-04-11T16:24:28.044Z,38.91
2023-04-11T16:26:54.712Z,38.83
2023-04-11T16:29:21.566Z,39.01
2023-04-11T16:31:48.503Z,39.22
2023-04-11T16:34:15.279Z,39.70
2023-04-11T16:36:41.983Z,39.05
2023-04-11T16:39:08.765Z,39.57
2023-04-11T16:41:37.742Z,39.60
2023-04-11T16:44:11.585Z,39.19
2023-04-11T16:46:39.586Z,39.87
2023-04-11T16:49:06.547Z,40.17
2023-04-11T16:51:33.508Z,39.68
2023-04-11T16:54:00.408Z,40.07
2023-04-11T16:56:29.044Z,40.38
2023-04-11T16:58:56.117Z,41.17
2023-04-11T17:01:22.961Z,40.23
2023-04-11T17:03:52.273Z,41.12
2023-04-11T17:06:19.388Z,40.54
2023-04-11T17:08:46.105Z,40.60
2023-04-11T17:11:13.502Z,40.78
2023-04-11T17:13:45.569Z,40.34
2023-04-11T17:16:12.456Z,40.20
2023-04-11T17:18:40.017Z,40.29
2023-04-11T17:21:07.019Z,40.60
2023-04-11T17:23:42.644Z,40.46
2023-04-11T17:26:13.725Z,40.80
2023-04-11T17:28:40.884Z,41.24
2023-04-11T17:31:12.982Z,40.26
2023-04-11T17:33:40.431Z,40.24
2023-04-11T17:36:08.132Z,40.26
2023-04-11T17:38:36.518Z,40.96
2023-04-11T17:41:13.351Z,41.54
2023-04-11T17:43:40.999Z,41.98
2023-04-11T17:46:08.900Z,41.74
2023-04-11T17:48:36.599Z,42.38
2023-04-11T17:51:06.865Z,42.54
2023-04-11T17:53:33.978Z,42.80
2023-04-11T17:56:05.989Z,42.95
2023-04-11T17:58:33.537Z,43.09
2023-04-11T18:01:00.265Z,43.00
2023-04-11T18:03:27.368Z,43.00
2023-04-11T18:05:54.857Z,43.28
2023-04-11T18:08:35.469Z,43.15
2023-04-11T18:11:04.318Z,43.87
2023-04-11T18:13:31.664Z,43.49
2023-04-11T18:15:58.709Z,43.66
2023-04-11T18:18:25.582Z,43.37
2023-04-11T18:20:52.244Z,43.27
2023-04-11T18:23:19.014Z,43.29
2023-04-11T18:25:46.018Z,43.11
2023-04-11T18:28:12.740Z,43.32
2023-04-11T18:30:39.563Z,42.96
2023-04-11T18:33:06.493Z,42.77
2023-04-11T18:35:33.368Z,43.20
2023-04-11T18:38:00.256Z,42.83
2023-04-11T18:40:27.618Z,42.96
2023-04-11T18:42:56.259Z,42.42
2023-04-11T18:45:23.991Z,42.61
2023-04-11T18:47:51.183Z,42.44
2023-04-11T18:50:18.926Z,42.24
2023-04-11T18:52:46.689Z,42.24
2023-04-11T18:55:16.329Z,42.29
2023-04-11T18:57:46.342Z,42.33
2023-04-11T19:00:18.399Z,42.19
2023-04-11T19:02:46.064Z,42.47
2023-04-11T19:05:13.665Z,42.56
2023-04-11T19:07:42.288Z,42.51
2023-04-11T19:10:10.768Z,43.06
2023-04-11T19:12:37.787Z,43.09
2023-04-11T19:15:08.202Z,43.17
2023-04-11T19:17:36.479Z,43.31
2023-04-11T19:20:06.815Z,42.81
2023-04-11T19:22:35.880Z,43.02
2023-04-11T19:25:02.709Z,42.45
2023-04-11T19:27:29.667Z,42.56
2023-04-11T19:29:57.088Z,42.46
2023-04-11T19:32:23.901Z,42.27
2023-04-11T19:34:51.279Z,42.92
2023-04-11T19:37:19.451Z,42.64
2023-04-11T19:39:49.239Z,42.69
2023-04-11T19:42:19.033Z,42.19
2023-04-11T19:44:45.939Z,42.00
2023-04-11T19:47:12.707Z,42.51
2023-04-11T19:49:39.428Z,42.70
2023-04-11T19:52:06.337Z,43.45
2023-04-11T19:54:33.513Z,43.21
2023-04-11T19:57:00.668Z,43.87
2023-04-11T19:59:27.404Z,43.55
2023-04-11T20:01:54.402Z,42.95
2023-04-11T20:04:21.367Z,43.92
2023-04-11T20:06:50.675Z,43.23
2023-04-11T20:09:17.494Z,43.83
2023-04-11T20:11:47.084Z,43.78
2023-04-11T20:14:13.902Z,44.05
2023-04-11T20:16:40.770Z,43.82
2023-04-11T20:19:08.268Z,44.25
2023-04-11T20:21:34.964Z,44.76
2023-04-11T20:24:06.257Z,44.43
2023-04-11T20:26:32.951Z,43.99
2023-04-11T20:29:00.069Z,44.94
2023-04-11T20:31:29.696Z,44.83
2023-04-11T20:33:56.986Z,44.15
2023-04-11T20:36:24.011Z,45.17
2023-04-11T20:38:50.919Z,44.58
2023-04-11T20:41:19.221Z,45.12
2023-04-11T20:43:45.958Z,45.02
2023-04-11T20:46:13.611Z,45.19
2023-04-11T20:48:42.003Z,45.24
2023-04-11T20:51:09.064Z,45.73
2023-04-11T20:53:39.096Z,45.23
2023-04-11T20:56:06.175Z,45.91
2023-04-11T20:58:32.998Z,45.56
2023-04-11T21:00:59.809Z,45.79
2023-04-11T21:03:31.030Z,45.46
2023-04-11T21:05:59.016Z,45.45
2023-04-11T21:08:25.711Z,45.88
2023-04-11T21:10:52.425Z,46.06
2023-04-11T21:13:21.575Z,45.80
2023-04-11T21:15:48.337Z,45.21
2023-04-11T21:18:15.388Z,45.67
2023-04-11T21:20:42.234Z,46.55
2023-04-11T21:23:08.987Z,46.02
2023-04-11T21:25:36.932Z,45.84
2023-04-11T21:28:03.756Z,46.59
2023-04-11T21:30:30.711Z,45.93
2023-04-11T21:32:57.443Z,46.42
2023-04-11T21:35:24.332Z,47.17
2023-04-11T21:37:51.158Z,47.75
2023-04-11T21:40:17.934Z,48.95
2023-04-11T21:42:44.629Z,47.72
2023-04-11T21:45:11.439Z,46.53
2023-04-11T21:47:38.361Z,47.51
2023-04-11T21:50:05.629Z,47.48
2023-04-11T21:52:32.303Z,46.11
2023-04-11T21:54:58.984Z,47.38
2023-04-11T21:57:25.962Z,47.49
2023-04-11T21:59:52.645Z,47.44
2023-04-11T22:02:19.599Z,47.06
2023-04-11T22:05:04.020Z,49.33
2023-04-11T22:07:38.444Z,49.70
2023-04-11T22:10:09.504Z,50.12
2023-04-11T22:12:36.659Z,50.19
2023-04-11T22:15:05.247Z,51.01
2023-04-11T22:17:32.378Z,51.67
2023-04-11T22:19:59.256Z,51.40
2023-04-11T22:22:32.817Z,52.42
2023-04-11T22:25:00.027Z,52.40
2023-04-11T22:27:27.293Z,51.75
2023-04-11T22:29:56.225Z,53.61
2023-04-11T22:32:23.636Z,54.89
2023-04-11T22:34:50.585Z,54.92
2023-04-11T22:37:17.428Z,54.00
2023-04-11T22:39:44.208Z,53.87
2023-04-11T22:42:11.612Z,54.71
2023-04-11T22:44:38.410Z,55.16
2023-04-11T22:47:12.078Z,54.75
2023-04-11T22:49:41.867Z,54.76
2023-04-11T22:52:10.654Z,55.07
2023-04-11T22:54:40.930Z,55.44
2023-04-11T22:57:07.640Z,54.67
2023-04-11T22:59:34.286Z,54.80
2023-04-11T23:02:02.068Z,55.32
2023-04-11T23:04:30.999Z,55.79
2023-04-11T23:06:58.141Z,57.53
2023-04-11T23:09:24.930Z,57.85
2023-04-11T23:11:52.189Z,57.00
2023-04-11T23:14:20.835Z,58.00
2023-04-11T23:16:47.944Z,58.72
2023-04-11T23:19:14.737Z,58.64
2023-04-11T23:21:41.530Z,59.89
2023-04-11T23:24:09.096Z,60.53
2023-04-11T23:26:36.130Z,59.92
2023-04-11T23:29:03.568Z,61.66
2023-04-11T23:31:31.497Z,61.21
2023-04-11T23:34:02.434Z,61.65
2023-04-11T23:36:29.399Z,61.47
2023-04-11T23:38:56.671Z,62.61
2023-04-11T23:41:23.980Z,62.60
2023-04-11T23:43:51.165Z,62.98
2023-04-11T23:46:18.262Z,65.08
2023-04-11T23:48:46.874Z,65.03
2023-04-11T23:51:13.956Z,64.52
2023-04-11T23:53:41.145Z,64.50
2023-04-11T23:56:08.982Z,65.00
2023-04-11T23:58:35.955Z,65.17
